Home > Products > Valid Products > TAF

000
FTUS42 TJSJ 231700
TAFJPS
TAF
TJPS 231724Z 2318/2418 12010KT P6SM FEW030
     FM232330 05005KT P6SM SCT025
     FM241500 12010KT P6SM FEW030
      AMD NOT SKED TIL 240300=



000
FTUS42 TJSJ 231700
TAFISX
TAF
TISX 231724Z 2318/2418 07014G20KT P6SM SCT025
     FM232300 07011KT P6SM VCSH FEW035
     FM241430 08017G25KT P6SM SCT025
      AMD NOT SKED=



000
FTUS42 TJSJ 231700
TAFIST
TAF
TIST 231724Z 2318/2418 10012KT P6SM FEW022 SCT040
     FM232300 09012KT P6SM VCSH FEW030
     FM241400 09017G25KT P6SM FEW022 SCT050
      AMD NOT SKED=



000
FTUS42 TJSJ 231700
TAFNCM
TAF
TNCM 231724Z 2318/2418 08014KT P6SM SCT023
     FM232300 09013KT P6SM FEW020
     FM241500 09017G25KT P6SM VCSH FEW020=



000
FTUS42 TJSJ 231700
TAFJMZ
TAF
TJMZ 231724Z 2318/2418 08010KT P6SM SCT030
     FM232200 08008KT P6SM FEW040
     FM241500 09011KT P6SM VCSH SCT040=



000
FTUS42 TJSJ 231700
TAFJBQ
TAF
TJBQ 231724Z 2318/2418 08014KT P6SM SCT025
     FM232200 10010KT P6SM FEW025
     FM241300 08018G26KT P6SM FEW030=



000
FTUS42 TJSJ 231700
TAFKPK
TAF
TKPK 231724Z 2318/2418 06015KT P6SM SCT020
     FM232300 07013KT P6SM FEW020
     FM241500 08018G26KT P6SM VCSH FEW020=



000
FTUS42 TJSJ 231700
TAFJSJ
TAF
TJSJ 231724Z 2318/2418 08013KT P6SM FEW030 SCT060
     FM232100 09009KT P6SM SCT030
     FM241400 08018G25KT P6SM VCSH FEW030 SCT050=



000
FTUS42 TJSJ 231100
TAFIST
TAF
TIST 231138Z 2312/2412 10010KT P6SM VCSH FEW022 SCT050
     FM231400 09017G25KT P6SM FEW022 SCT050
     FM232300 09012KT P6SM VCSH FEW030
      AMD NOT SKED=



000
FTUS42 TJSJ 231100
TAFISX
TAF
TISX 231138Z 2312/2412 06011KT P6SM SCT030
     FM231400 08017G25KT P6SM SCT025
     FM232300 07011KT P6SM VCSH FEW035
      AMD NOT SKED=



000
FTUS42 TJSJ 231100
TAFJMZ
TAF
TJMZ 231138Z 2312/2412 08008KT P6SM SCT030
     FM231600 09011KT P6SM VCSH SCT040
     FM232200 08008KT P6SM FEW040
      AMD NOT SKED TIL 231600=



000
FTUS42 TJSJ 231100
TAFJPS
TAF
TJPS 231138Z 2312/2412 07006KT P6SM FEW030
     FM231500 12010KT P6SM FEW030
     FM232330 05005KT P6SM FEW030
      AMD NOT SKED TIL 240300=



000
FTUS42 TJSJ 231100
TAFJBQ
TAF
TJBQ 231138Z 2312/2412 13006KT P6SM FEW030
     FM231300 08018G26KT P6SM FEW030
     FM232200 10010KT P6SM FEW025
      AMD NOT SKED 2402/2411=



000
FTUS42 TJSJ 231100
TAFNCM
TAF
TNCM 231138Z 2312/2412 10013KT P6SM VCSH SCT018
     FM231500 09017G25KT P6SM VCSH FEW020
     FM232300 09013KT P6SM FEW020=



000
FTUS42 TJSJ 231100
TAFKPK
TAF
TKPK 231138Z 2312/2412 06014KT P6SM VCSH FEW022
     FM231500 08018G26KT P6SM VCSH FEW020
     FM232300 07013KT P6SM FEW020
      AMD NOT SKED 2402/2411=



000
FTUS42 TJSJ 231100
TAFJSJ
TAF
TJSJ 231138Z 2312/2412 11004KT P6SM VCSH FEW028 SCT040 SCT060
     FM231330 08018G25KT P6SM VCSH FEW030 SCT050
     FM232100 09009KT P6SM SCT030=



000
FTUS42 TJSJ 230500
TAFNCM
TAF
TNCM 230533Z 2306/2406 09015KT P6SM VCSH SCT018
     FM231500 09016G24KT P6SM FEW020
     FM232300 09013KT P6SM FEW020=



000
FTUS42 TJSJ 230500
TAFIST
TAF
TIST 230533Z 2306/2406 10009KT P6SM VCSH FEW030
     FM231200 09017G25KT P6SM VCSH FEW035
     FM232300 09012KT P6SM VCSH FEW030
      AMD NOT SKED=



000
FTUS42 TJSJ 230500
TAFJPS
TAF
TJPS 230533Z 2306/2406 05004KT P6SM FEW030
     FM231500 12010KT P6SM FEW030
     FM232330 05005KT P6SM FEW030
      AMD NOT SKED 2312/2403=



000
FTUS42 TJSJ 230500
TAFKPK
TAF
TKPK 230533Z 2306/2406 06015KT P6SM VCSH FEW018
     FM231500 08016G24KT P6SM FEW020
     FM232300 07013KT P6SM FEW020
      AMD NOT SKED TIL 231100=



000
FTUS42 TJSJ 230500
TAFJBQ
TAF
TJBQ 230533Z 2306/2406 10009KT P6SM SCT030 BKN100
     FM231300 08018G26KT P6SM FEW030
     FM232200 10010KT P6SM FEW025
      AMD NOT SKED TIL 231100=



000
FTUS42 TJSJ 230500
TAFJMZ
TAF
TJMZ 230533Z 2306/2406 08008KT P6SM SCT030
     FM231600 09011KT P6SM VCSH SCT040
     FM232200 08008KT P6SM FEW040
      AMD NOT SKED TIL 231600=



000
FTUS42 TJSJ 230500
TAFJSJ
TAF
TJSJ 230533Z 2306/2406 11004KT P6SM VCSH SCT025
     FM231400 08018G25KT P6SM VCSH FEW025
     FM232100 09009KT P6SM VCSH SCT030=



000
FTUS42 TJSJ 230500
TAFISX
TAF
TISX 230533Z 2306/2406 06009KT P6SM VCSH FEW030
     FM231200 08017G25KT P6SM VCSH FEW035
     FM232300 07011KT P6SM VCSH FEW035
      AMD NOT SKED=



000
FTUS42 TJSJ 230200 AAA
TAFKPK
TAF AMD
TKPK 230216Z 2302/2324 05015KT P6SM VCSH FEW020 BKN080
      TEMPO 2302/2304 VRB18G25KT -SHRA BKN018
     FM231600 08015G23KT P6SM FEW022 BKN060
     FM232300 07012KT P6SM FEW020
      AMD NOT SKED 2302/2311=



000
FTUS42 TJSJ 230100 AAA
TAFJPS
TAF AMD
TJPS 230101Z 2301/2324 06005KT P6SM FEW025 BKN060
      TEMPO 2301/2302 -SHRA BKN030
     FM231500 11008KT P6SM FEW030 BKN070
     FM232330 09007KT P6SM FEW030 SCT060
      AMD NOT SKED TIL 230300=



000
FTUS42 TJSJ 230000 AAA
TAFISX
TAF AMD
TISX 230029Z 2300/2324 07010KT P6SM SCT030 BKN070
     FM231600 08014G23KT P6SM VCSH FEW025 SCT070
     FM232300 07011KT P6SM FEW025
      AMD NOT SKED=



000
FTUS42 TJSJ 230000 AAA
TAFNCM
TAF AMD
TNCM 230029Z 2301/2324 08009KT P6SM VCSH SCT017 BKN080
      TEMPO 2300/2302 -SHRA BKN018
     FM231600 09015G23KT P6SM VCSH SCT018 BKN060
     FM232300 10012KT P6SM FEW020=



000
FTUS42 TJSJ 230000 AAA
TAFIST
TAF AMD
TIST 230029Z 2300/2324 08012KT P6SM VCSH SCT025 BKN070
     FM231600 08014G23KT P6SM FEW025 SCT070
     FM232300 09011KT P6SM FEW025
      AMD NOT SKED=



000
FTUS42 TJSJ 222300 RRA
TAFJMZ
TAF
TJMZ 222340Z 2300/2324 08005KT P6SM VCSH SCT030 BKN040
     FM231530 08008KT P6SM VCSH SCT040
     FM232200 06006KT P6SM FEW040
      AMD NOT SKED TIL 231600=



000
FTUS42 TJSJ 222300 RRA
TAFKPK
TAF
TKPK 222340Z 2300/2324 07010KT P6SM VCSH FEW020 BKN080
     FM231600 08015G23KT P6SM FEW022 BKN060
     FM232300 07012KT P6SM FEW020
      AMD NOT SKED 2302/2311=



000
FTUS42 TJSJ 222300 RRA
TAFNCM
TAF
TNCM 222340Z 2300/2324 08009KT P6SM VCSH SCT017 BKN080
     FM231600 09015G23KT P6SM VCSH SCT018 BKN060
     FM232300 10012KT P6SM FEW020=



000
FTUS42 TJSJ 222300 RRA
TAFIST
TAF
TIST 222340Z 2300/2324 08012KT P6SM FEW025
     FM231600 08014G23KT P6SM VCSH FEW025 SCT070
     FM232300 09011KT P6SM FEW025=



000
FTUS42 TJSJ 222300 RRA
TAFISX
TAF
TISX 222340Z 2300/2324 07010KT P6SM FEW030
     FM231600 08014G23KT P6SM VCSH FEW025 SCT070
     FM232300 07011KT P6SM FEW025=



000
FTUS42 TJSJ 222300 RRA
TAFJBQ
TAF
TJBQ 222340Z 2300/2324 09009KT P6SM SCT030 OVC070
     FM231400 08015G23KT P6SM FEW030 SCT070
     FM232300 09010KT P6SM FEW025
      AMD NOT SKED 2302/2311=



000
FTUS42 TJSJ 222300 RRA
TAFJSJ
TAF
TJSJ 222340Z 2300/2324 12003KT P6SM SCT025 SCT030 BKN100
     FM231600 07012KT P6SM VCSH SCT025 SCT070
     FM232100 09006KT P6SM SCT030=



000
FTUS42 TJSJ 222300 RRA
TAFJPS
TAF
TJPS 222340Z 2300/2324 06005KT P6SM FEW025 BKN060
     FM231500 11008KT P6SM FEW030 BKN070
     FM232330 09007KT P6SM FEW030 SCT060
      AMD NOT SKED TIL 230300=



000
FTUS42 TJSJ 222000 AAA
TAFJSJ
TAF AMD
TJSJ 222001Z 2220/2318 11012G21KT P6SM VCTS SCT025CB BKN040 OVC070
      TEMPO 2220/2221 VRB15G25KT 3SM SHRA BKN030
     FM222200 09007KT P6SM SCT025 SCT060
     FM231600 08012KT P6SM SCT025=



000
FTUS42 TJSJ 221700
TAFISX
TAF
TISX 221720Z 2218/2318 10014KT P6SM VCSH SCT025 SCT060
     FM222200 07010KT P6SM SCT025
     FM231600 08012KT P6SM FEW025
      AMD NOT SKED=



000
FTUS42 TJSJ 221700
TAFIST
TAF
TIST 221720Z 2218/2318 10008KT P6SM FEW022
     FM222300 08012KT P6SM FEW025
     FM231600 08010KT P6SM FEW025 SCT070
      AMD NOT SKED=



000
FTUS42 TJSJ 221700
TAFKPK
TAF
TKPK 221720Z 2218/2318 08012KT P6SM VCSH SCT018 BKN050
      TEMPO 2218/2219 5SM -SHRA BKN025
     FM222000 07013KT P6SM VCSH FEW016
     FM231600 06012KT P6SM FEW022
      AMD NOT SKED TIL 231100=



000
FTUS42 TJSJ 221700
TAFJPS
TAF
TJPS 221720Z 2218/2318 12010KT P6SM VCSH SCT025 BKN060
     FM222300 06005KT P6SM FEW025
     FM231500 11008KT P6SM VCSH FEW030 BKN070=



000
FTUS42 TJSJ 221700
TAFJMZ
TAF
TJMZ 221720Z 2218/2318 09006KT P6SM VCSH SCT030
      TEMPO 2219/2221 5SM SHRA SCT022 BKN050
     FM222200 08005KT P6SM VCSH SCT030
     FM231530 08008KT P6SM FEW030=



000
FTUS42 TJSJ 221700
TAFJBQ
TAF
TJBQ 221720Z 2218/2318 10011KT P6SM VCSH SCT025 SCT080
      TEMPO 2218/2221 5SM SHRA SCT022 BKN050
     FM222300 09009KT P6SM SCT030
     FM231400 08011KT P6SM FEW030=



000
FTUS42 TJSJ 221700
TAFNCM
TAF
TNCM 221720Z 2218/2318 08012KT P6SM VCSH SCT018 BKN050
      TEMPO 2218/2220 5SM -SHRA FEW018 SCT030
     FM222000 09013KT P6SM FEW018
     FM231600 09012KT P6SM VCSH SCT018 BKN060=



000
FTUS42 TJSJ 221700
TAFJSJ
TAF
TJSJ 221720Z 2218/2318 07007KT P6SM VCSH SCT025 BKN040 BKN070
      TEMPO 2218/2220 4SM SHRA BKN025 BKN040
     FM222200 09007KT P6SM SCT025 SCT060
     FM231600 08012KT P6SM SCT025=



000
FTUS42 TJSJ 221100
TAFISX
TAF
TISX 221123Z 2212/2312 05006KT P6SM VCSH SCT025 BKN060
      TEMPO 2212/2216 3SM SHRA BKN025
     FM221600 08014G22KT P6SM VCTS SCT025CB BKN050
     FM222200 07011KT P6SM VCSH SCT025
      AMD NOT SKED=



000
FTUS42 TJSJ 221100
TAFKPK
TAF
TKPK 221123Z 2212/2312 07013KT P6SM FEW018 BKN050
      TEMPO 2212/2216 3SM SHRA BKN015
     FM221600 06012KT P6SM VCSH FEW016 BKN060
     FM222000 07013KT P6SM VCSH FEW016
      AMD NOT SKED TIL 231100=



000
FTUS42 TJSJ 221100
TAFJBQ
TAF
TJBQ 221123Z 2212/2312 10010KT P6SM VCSH FEW025 SCT060
     FM221400 08013G20KT P6SM VCTS FEW030CB BKN070
      TEMPO 2218/2221 4SM SHRA SCT022 BKN040
     FM222300 09009KT P6SM SCT030
      AMD NOT SKED TIL 231100=



000
FTUS42 TJSJ 221100
TAFNCM
TAF
TNCM 221123Z 2212/2312 08012KT P6SM VCSH SCT018 BKN050
      TEMPO 2212/2216 3SM SHRA BKN015
     FM221600 09012KT P6SM VCSH SCT018 BKN060
     FM222000 09013KT P6SM FEW018=



000
FTUS42 TJSJ 221100
TAFJPS
TAF
TJPS 221123Z 2212/2312 06005KT P6SM FEW025
     FM221500 11008KT P6SM VCSH FEW030 BKN070
     FM222300 06005KT P6SM FEW025
      AMD NOT SKED TIL 230300=



000
FTUS42 TJSJ 221100
TAFIST
TAF
TIST 221123Z 2212/2312 10008KT P6SM VCSH SCT025 BKN060
      TEMPO 2212/2216 4SM SHRA BKN020
     FM221600 08014G21KT P6SM VCTS SCT025CB BKN050
     FM222300 08012KT P6SM VCSH FEW025
      AMD NOT SKED=



000
FTUS42 TJSJ 221100
TAFJSJ
TAF
TJSJ 221123Z 2212/2312 10003KT P6SM VCSH SCT020 SCT040 BKN070
      TEMPO 2212/2216 4SM SHRA BKN025
     FM221600 08012KT P6SM VCTS SCT025CB BKN060
     FM222200 09007KT P6SM FEW025=



000
FTUS42 TJSJ 221100
TAFJMZ
TAF
TJMZ 221123Z 2212/2312 VRB06KT P6SM SCT030
     FM221530 08008KT P6SM VCTS SCT030CB BKN060
      TEMPO 2218/2221 4SM SHRA SCT022 BKN040
     FM222200 08005KT P6SM VCSH SCT030
      AMD NOT SKED TIL 221600=



000
FTUS42 TJSJ 221000 AAA
TAFNCM
TAF AMD
TNCM 221015Z 2210/2306 08011KT P6SM VCTS SCT018CB BKN070
      TEMPO 2210/2214 3SM SHRA BKN015
     FM221400 09012KT P6SM VCSH SCT018 BKN060
     FM222000 09013KT P6SM FEW018=



000
FTUS42 TJSJ 221000 AAA
TAFKPK
TAF AMD
TKPK 221012Z 2210/2306 05012KT P6SM VCTS FEW018CB BKN070
      TEMPO 2210/2214 3SM SHRA BKN015
     FM221400 06012KT P6SM VCSH FEW016 BKN060
     FM222000 07013KT P6SM VCSH FEW016
      AMD NOT SKED TIL 221100=



000
FTUS42 TJSJ 221000 AAA
TAFJSJ
TAF AMD
TJSJ 221011Z 2210/2306 10003KT P6SM VCSH SCT025 BKN080
      TEMPO 2211/2215 3SM SHRA BKN025
     FM221500 08012KT P6SM VCTS SCT025CB BKN060
     FM222200 09007KT P6SM FEW025=



000
FTUS42 TJSJ 221000 AAA
TAFJSJ
TAF AMD
TJSJ 221011Z 2210/2306 10003KT P6SM VCSH SCT025 BKN080
      TEMPO 2211/2215 3SM SHRA BKN025
     FM221500 08012KT P6SM VCTS SCT025CB BKN060
     FM222200 09007KT P6SM FEW025=



000
FTUS42 TJSJ 220500
TAFJMZ
TAF
TJMZ 220526Z 2206/2306 VRB06KT P6SM SCT030
     FM221530 08008KT P6SM VCTS SCT030CB BKN060
     FM222200 08005KT P6SM SCT030
      AMD NOT SKED TIL 221600=



000
FTUS42 TJSJ 220500
TAFNCM
TAF
TNCM 220526Z 2206/2306 08011KT P6SM VCTS SCT018CB BKN070
      TEMPO 2206/2210 3SM +SHRA BKN014
     FM221300 09012KT P6SM VCSH SCT018 BKN060
     FM222000 09013KT P6SM FEW018=



000
FTUS42 TJSJ 220500
TAFKPK
TAF
TKPK 220526Z 2206/2306 04010KT P6SM VCTS FEW018CB BKN070
      TEMPO 2206/2210 3SM +SHRA BKN014
     FM221300 06012KT P6SM VCSH FEW016 BKN060
     FM222000 07013KT P6SM VCSH FEW016
      AMD NOT SKED TIL 221100=



000
FTUS42 TJSJ 220500
TAFJSJ
TAF
TJSJ 220526Z 2206/2306 10003KT P6SM VCSH SCT025 BKN080
      TEMPO 2206/2210 VRB15G22KT 3SM +SHRA OVC025
     FM221400 08012KT P6SM VCTS SCT025CB BKN060
     FM222200 09007KT P6SM FEW025=



000
FTUS42 TJSJ 220500
TAFIST
TAF
TIST 220526Z 2206/2306 10008KT P6SM VCTS SCT025CB BKN080
      TEMPO 2206/2210 VRB17G25KT 3SM +SHRA OVC020
     FM221500 08014G21KT P6SM VCTS SCT025CB BKN050
     FM222300 08012KT P6SM VCSH FEW025
      AMD NOT SKED=



000
FTUS42 TJSJ 220500
TAFISX
TAF
TISX 220526Z 2206/2306 03005KT P6SM VCSH SCT025 BKN080
      TEMPO 2206/2210 VRB15G23KT 3SM +SHRA OVC025
     FM221500 08014G22KT P6SM VCTS SCT025CB BKN050
     FM222200 07011KT P6SM VCSH SCT025
      AMD NOT SKED=



000
FTUS42 TJSJ 220500
TAFJBQ
TAF
TJBQ 220526Z 2206/2306 10005KT P6SM VCSH FEW025
     FM221400 08013G20KT P6SM VCTS FEW030CB BKN070
     FM222300 09009KT P6SM SCT030
      AMD NOT SKED TIL 221100=



000
FTUS42 TJSJ 220500
TAFJPS
TAF
TJPS 220526Z 2206/2306 05004KT P6SM VCSH FEW025
     FM221500 11009KT P6SM VCSH FEW030 BKN070
     FM222300 06005KT P6SM FEW025
      AMD NOT SKED 2212/2303=



000
FTUS42 TJSJ 212300 CCA
TAFKPK
TAF COR
TKPK 212348Z 2200/2224 06010KT P6SM -RA VCTS FEW020CB BKN050
      TEMPO 2200/2203 VRB16G24KT 4SM +SHRA OVC015
     FM221300 07015G20KT P6SM VCSH FEW015 SCT022
     FM221800 08012KT P6SM VCSH FEW018 FEW025
      AMD NOT SKED 2202/2211=



000
FTUS42 TJSJ 212300 RRA
TAFJSJ
TAF
TJSJ 212347Z 2200/2224 09007KT P6SM -RA SCT025 BKN040
      TEMPO 2206/2209 VRB10G20KT 4SM SHRA OVC030
     FM221500 08013G19KT P6SM VCTS SCT025CB SCT035 SCT060
     FM222200 10006KT P6SM FEW025 SCT030=



000
FTUS42 TJSJ 212300 RRA
TAFNCM
TAF
TNCM 212347Z 2200/2224 09012G21KT P6SM -RA VCTS SCT015CB BKN020
      TEMPO 2200/2203 VRB15G24KT 4SM +SHRA OVC016
     FM221300 09015G20KT P6SM VCSH SCT018 SCT022
     FM221800 09015KT P6SM FEW018 FEW025=



000
FTUS42 TJSJ 212300 RRA
TAFJPS
TAF
TJPS 212347Z 2200/2224 07005KT P6SM VCSH SCT030 SCT060
     FM221500 11011KT P6SM VCSH FEW030 SCT060
     FM222300 07005KT P6SM FEW030 SCT060
      AMD NOT SKED TIL 220300=



000
FTUS42 TJSJ 212300 RRA
TAFKPK
TAF
TKPK 212347Z 2200/2224 06010KT P6SM -RA VCTS FEW020CB BKN050
      TEMPO 2206/2209 VRB16G24KT 4SM +SHRA OVC015
     FM221300 07015G20KT P6SM VCSH FEW015 SCT022
     FM221800 08012KT P6SM VCSH FEW018 FEW025
      AMD NOT SKED 2202/2211=



000
FTUS42 TJSJ 212300 RRA
TAFJBQ
TAF
TJBQ 212347Z 2200/2224 10010KT P6SM VCSH SCT025 SCT035 SCT045
     FM221400 08015G25KT P6SM VCSH SCT025 BKN035
     FM222300 09008KT P6SM SCT025 SCT035
      AMD NOT SKED 2202/2211=



000
FTUS42 TJSJ 212300 RRA
TAFJMZ
TAF
TJMZ 212347Z 2200/2224 VRB06KT P6SM VCSH SCT030
     FM221530 08010KT P6SM VCSH SCT025 BKN030
     FM222200 08005KT P6SM SCT025 SCT040
      AMD NOT SKED TIL 221600=



000
FTUS42 TJSJ 212300 RRA
TAFIST
TAF
TIST 212347Z 2200/2224 07012G19KT P6SM -RA VCTS SCT025CB BKN050
      TEMPO 2206/2209 VRB10G24KT 4SM SHRA OVC030
     FM221500 08015G22KT P6SM VCTS SCT025CB SCT035
     FM222300 08011KT P6SM VCSH FEW025 FEW035
      AMD NOT SKED=



000
FTUS42 TJSJ 212300 RRA
TAFISX
TAF
TISX 212347Z 2200/2224 07012KT P6SM -RA VCSH SCT025 BKN050
      TEMPO 2206/2209 VRB10G26KT 3SM +SHRA OVC030
     FM221500 08015G26KT P6SM VCTS SCT025CB BKN050
     FM222200 07012KT P6SM VCSH SCT025
      AMD NOT SKED=



000
FTUS42 TJSJ 212100 AAA
TAFJSJ
TAF AMD
TJSJ 212123Z 2121/2218 07015G21KT P6SM -RA VCSH FEW025 SCT030
      SCT045
     FM212200 09007KT P6SM VCSH SCT025 SCT040
     FM221330 08015KT P6SM VCSH SCT025=



000
FTUS42 TJSJ 212000 AAA
TAFJMZ
TAF AMD
TJMZ 212036Z 2121/2218 VRB10G15KT 6SM RA SCT025 BKN030
     FM212300 VRB06KT P6SM SCT030
     FM221530 27010KT P6SM SCT025 BKN040
      AMD NOT SKED 2123/2216=



000
FTUS42 TJSJ 211700 RRA
TAFNCM
TAF
TNCM 211742Z 2118/2218 09013G18KT P6SM VCTS SCT015CB BKN030
      TEMPO 2118/2121 5SM SHRA BKN015
     FM212300 08012KT P6SM VCTS SCT018CB BKN030
     FM221300 09015G20KT P6SM VCSH SCT022=



000
FTUS42 TJSJ 211700 RRA
TAFIST
TAF
TIST 211742Z 2118/2218 08015KT P6SM VCSH SCT025 SCT040
     FM212300 07010KT P6SM VCSH SCT025 BKN050
     FM221300 08016KT P6SM VCTS SCT025CB=



000
FTUS42 TJSJ 211700 RRA
TAFKPK
TAF
TKPK 211742Z 2118/2218 07012G18KT P6SM VCTS SCT014CB BKN030
      TEMPO 2118/2121 5SM SHRA BKN012
     FM212300 08012KT P6SM VCTS SCT015CB BKN030
     FM221300 07015G20KT P6SM VCSH SCT022
      AMD NOT SKED 2202/2211=



000
FTUS42 TJSJ 211700 RRA
TAFJMZ
TAF
TJMZ 211742Z 2118/2218 09010KT P6SM VCTS SCT030 BKN040CB
     FM212300 VRB06KT P6SM SCT030
     FM221530 27010KT P6SM SCT025 BKN040
      AMD NOT SKED 2123/2216=



000
FTUS42 TJSJ 211700 RRA
TAFJBQ
TAF
TJBQ 211742Z 2118/2218 08015G24KT P6SM SCT025
     FM212300 10008KT P6SM FEW025 SCT040
     FM221400 08015G25KT P6SM VCSH SCT025
      AMD NOT SKED 2202/2211=



000
FTUS42 TJSJ 211700 RRA
TAFISX
TAF
TISX 211742Z 2118/2218 07015KT P6SM VCTS SCT025CB BKN050
      TEMPO 2118/2119 SHRA BKN020
     FM212300 08012KT P6SM VCTS SCT025CB BKN050
     FM221300 08013G20KT P6SM VCTS SCT025CB BKN050=



000
FTUS42 TJSJ 211700 RRA
TAFJSJ
TAF
TJSJ 211742Z 2118/2218 07015G21KT P6SM VCSH SCT030
     FM212200 09007KT P6SM VCSH SCT025 SCT040
     FM221330 08015KT P6SM VCSH SCT025=



000
FTUS42 TJSJ 211700 RRA
TAFJPS
TAF
TJPS 211742Z 2118/2218 12012KT P6SM VCSH FEW030 SCT060
     FM212330 07005KT P6SM VCSH SCT030 BKN060
     FM221500 12012KT P6SM VCSH FEW030 SCT060
      AMD NOT SKED TIL 220300=



000
FTUS42 TJSJ 211600 CCA
TAFISX
TAF COR
TISX 211610Z 2116/2212 07015KT P6SM VCSH SCT025 BKN050
      TEMPO 2116/2117 -TSRA BKN020CB
     FM212300 07012KT P6SM VCTS SCT025CB BKN050
      AMD NOT SKED=



000
FTUS42 TJSJ 211600 AAA
TAFKPK
TAF AMD
TKPK 211606Z 2116/2212 08015G20KT P6SM VCTS SCT015CB BKN030
      TEMPO 2116/2118 -TSRA BKN020CB
     FM212300 07012KT P6SM VCTS SCT015CB BKN030=



000
FTUS42 TJSJ 211600 AAA
TAFISX
TAF AMD
TISX 211604Z 2116/2212 07015KT P6SM VCSH SCT025 BKN050
      TEMPO 2116/2117 -SHRA BKN020
     FM212300 07012KT P6SM VCTS SCT025CB BKN050
      AMD NOT SKED=



000
FTUS42 TJSJ 211600 AAA
TAFISX
TAF AMD
TISX 211604Z 2116/2212 07015KT P6SM VCSH SCT025 BKN050
      TEMPO 2116/2117 -SHRA BKN020
     FM212300 07012KT P6SM VCTS SCT025CB BKN050
      AMD NOT SKED=



000
FTUS42 TJSJ 211100
TAFIST
TAF
TIST 211140Z 2112/2212 07010KT P6SM VCSH FEW025
     FM211400 08015KT P6SM VCSH SCT025 BKN050
     FM212300 07012KT P6SM VCSH SCT025 BKN050
      AMD NOT SKED=



000
FTUS42 TJSJ 211100
TAFKPK
TAF
TKPK 211140Z 2112/2212 07012KT P6SM VCTS SCT018CB SCT025
     FM211300 08015G20KT P6SM VCTS SCT015CB BKN030
      TEMPO 2113/2116 -SHRA BKN020
     FM212300 07012KT P6SM VCTS SCT015CB BKN030=



000
FTUS42 TJSJ 211100
TAFJSJ
TAF
TJSJ 211140Z 2112/2212 VRB06KT P6SM VCSH FEW035 SCT060
     FM211300 08015KT P6SM VCSH SCT030 SCT050
     FM212200 09007KT P6SM VCSH SCT030 SCT050=



000
FTUS42 TJSJ 211100
TAFISX
TAF
TISX 211140Z 2112/2212 VRB05KT P6SM VCSH FEW025
     FM211300 09015KT P6SM VCSH SCT025 BKN050
     FM212300 07012KT P6SM VCTS SCT025CB BKN050
      AMD NOT SKED=



000
FTUS42 TJSJ 211100
TAFJMZ
TAF
TJMZ 211140Z 2112/2212 07005KT P6SM FEW040
     FM211530 07010KT P6SM SCT030
     FM211800 07010KT P6SM VCSH SCT020 BKN040
     FM212300 VRB06KT P6SM SCT020 BKN060
      AMD NOT SKED TIL 211600=



000
FTUS42 TJSJ 211100
TAFNCM
TAF
TNCM 211140Z 2112/2212 07010KT P6SM VCSH FEW017 SCT020
     FM211300 10015G20KT P6SM VCTS SCT015CB BKN030
      TEMPO 2114/2116 -SHRA BKN020
     FM212300 08012KT P6SM VCTS SCT018CB BKN030=



000
FTUS42 TJSJ 211100
TAFJPS
TAF
TJPS 211140Z 2112/2212 VRB05KT P6SM FEW030
     FM211500 13012KT P6SM VCSH FEW030 BKN060
     FM212330 07005KT P6SM VCSH SCT030 BKN060
      AMD NOT SKED TIL 220300=



000
FTUS42 TJSJ 211100
TAFJBQ
TAF
TJBQ 211140Z 2112/2212 VRB05KT P6SM FEW025 FEW040
     FM211400 08013KT P6SM SCT025
     FM211700 08015G24KT P6SM VCSH FEW020 SCT040
     FM212300 10008KT P6SM FEW025 SCT040=



000
FTUS42 TJSJ 210800 AAA
TAFISX
TAF AMD
TISX 210825Z 2108/2206 07009KT P6SM VCSH FEW025
      TEMPO 2108/2110 VRB10G25KT 2SM SHRA BKN025
     FM211300 09015G25KT P6SM VCSH SCT025 BKN050
     FM212300 07012KT P6SM VCTS SCT025CB BKN050
      AMD NOT SKED=



000
FTUS42 TJSJ 210500 RRA
TAFISX
TAF
TISX 210543Z 2106/2206 07009KT P6SM VCSH FEW025
      TEMPO 2106/2108 VRB10KT 5SM SHRA BKN030
     FM211300 09015G25KT P6SM VCSH SCT025 BKN050
     FM212300 07012KT P6SM VCTS SCT025CB BKN050
      AMD NOT SKED=



000
FTUS42 TJSJ 210500 RRA
TAFJMZ
TAF
TJMZ 210543Z 2106/2206 07005KT P6SM FEW040
     FM211530 08009KT P6SM SCT030 PROB30 2118/2122 VRB10KT 5SM SHRA
      BKN030
     FM212200 08006KT P6SM VCSH SCT020 BKN060
      AMD NOT SKED TIL 211600=



000
FTUS42 TJSJ 210500 RRA
TAFIST
TAF
TIST 210543Z 2106/2206 07010KT P6SM VCSH FEW025
     FM211400 07015G25KT P6SM VCSH SCT025 BKN050
     FM212300 07012KT P6SM VCSH SCT025 BKN050
      AMD NOT SKED=



000
FTUS42 TJSJ 210500 RRA
TAFJBQ
TAF
TJBQ 210543Z 2106/2206 VRB05KT P6SM FEW025 FEW040
     FM211400 08013KT P6SM SCT025
     FM211700 08015G25KT P6SM VCSH FEW020 SCT040
     FM212300 10008KT P6SM FEW025 SCT040
      AMD NOT SKED TIL 211100=



000
FTUS42 TJSJ 210500 RRA
TAFJPS
TAF
TJPS 210543Z 2106/2206 VRB05KT P6SM FEW030
     FM211500 13012KT P6SM VCSH FEW030 BKN060
     FM212330 07005KT P6SM VCSH SCT030 BKN060
      AMD NOT SKED 2111/2203=



000
FTUS42 TJSJ 210500 RRA
TAFKPK
TAF
TKPK 210543Z 2106/2206 07014KT P6SM VCTS SCT018CB
      TEMPO 2108/2112 VRB14G24KT 5SM -TSRA SCT012CB BKN018
     FM211300 08015G25KT P6SM VCTS SCT015CB BKN030
      AMD NOT SKED TIL 211100=



000
FTUS42 TJSJ 210500 RRA
TAFNCM
TAF
TNCM 210543Z 2106/2206 09010KT P6SM VCSH SCT020
     FM211300 10015G25KT P6SM VCTS SCT015CB BKN030
      AMD NOT SKED TIL 211100=



000
FTUS42 TJSJ 210500 RRA
TAFJSJ
TAF
TJSJ 210543Z 2106/2206 VRB06KT P6SM VCSH FEW035 SCT060
     FM211300 08015KT P6SM VCSH SCT030 SCT050
     FM212200 09007KT P6SM VCSH SCT030 SCT050 PROB30 2200/2206
      VRB10KT 5SM SHRA BKN060=



000
FTUS42 TJSJ 210400 AAA
TAFNCM
TAF AMD
TNCM 210419Z 2104/2124 09010KT P6SM VCSH SCT020
      TEMPO 2104/2106 VRB15G25KT 5SM -TSRA BKN020CB
     FM211300 10015G24KT P6SM -RA VCTS SCT015CB SCT020 BKN040
      AMD NOT SKED TIL 211100=



000
FTUS42 TJSJ 210400 AAA
TAFNCM
TAF AMD
TNCM 210419Z 2104/2124 09010KT P6SM VCSH SCT020
      TEMPO 2104/2106 VRB15G25KT 5SM -TSRA BKN020CB
     FM211300 10015G24KT P6SM -RA VCTS SCT015CB SCT020 BKN040
      AMD NOT SKED TIL 211100=



000
FTUS42 TJSJ 210200 AAA
TAFKPK
TAF AMD
TKPK 210240Z 2103/2124 06015KT P6SM SCT018
      TEMPO 2103/2104 07016G26KT 3SM SHRA SCT012 BKN018
     FM210600 07014KT P6SM -RA SCT018
      TEMPO 2108/2112 VRB14G26KT 5SM TSRA SCT012CB BKN018
     FM211300 08015G24KT P6SM -RA VCTS SCT015CB SCT020 BKN040
      AMD NOT SKED 2102/2111=



000
FTUS42 TJSJ 210000 AAA
TAFJSJ
TAF AMD
TJSJ 210015Z 2100/2124 09007KT P6SM VCSH FEW035 FEW060
     FM211300 08015G22KT P6SM VCSH SCT024 SCT030 SCT050
     FM212200 09007KT P6SM VCSH SCT030 SCT050=



000
FTUS42 TJSJ 210000 AAA
TAFIST
TAF AMD
TIST 210015Z 2100/2124 09010KT P6SM VCSH FEW025
     FM211300 07015G22KT P6SM VCSH SCT025 SCT035 SCT045
     FM212300 09011KT P6SM VCSH SCT025 SCT035
      AMD NOT SKED=



000
FTUS42 TJSJ 202300 RRA
TAFNCM
TAF
TNCM 202354Z 2100/2124 10014G23KT P6SM VCSH SCT020
      TEMPO 2108/2112 VRB14G29KT 5SM TSRA SCT017CB BKN018
     FM211300 10015G24KT P6SM -RA VCTS SCT015CB SCT020 BKN040
      AMD NOT SKED 2102/2111=



000
FTUS42 TJSJ 202300 RRA
TAFKPK
TAF
TKPK 202349Z 2100/2124 06015KT P6SM SCT018
      TEMPO 2100/2102 07016G26KT 3SM SHRA SCT012 BKN018
     FM210600 07014KT P6SM -RA SCT018
      TEMPO 2108/2112 VRB14G26KT 5SM TSRA SCT012CB BKN018
     FM211300 08015G24KT P6SM -RA VCTS SCT015CB SCT020 BKN040
      AMD NOT SKED 2102/2111=



000
FTUS42 TJSJ 202300
TAFIST
TAF
TIST 202339Z 2100/2124 09010KT P6SM FEW025
     FM211300 07015G22KT P6SM VCSH SCT025 SCT035 SCT045
     FM212300 09011KT P6SM VCSH SCT025 SCT035
      AMD NOT SKED=



000
FTUS42 TJSJ 202300
TAFJBQ
TAF
TJBQ 202339Z 2100/2124 VRB05KT P6SM FEW025 FEW040
     FM211400 08013KT P6SM SCT025
     FM211700 08016G24KT P6SM VCSH SCT020 BKN040
     FM212300 09008KT P6SM SCT025 SCT040
      AMD NOT SKED 2102/2111=



000
FTUS42 TJSJ 202300
TAFJPS
TAF
TJPS 202339Z 2100/2124 07005KT P6SM FEW030
     FM211500 13012KT P6SM VCSH FEW030 SCT060
     FM212330 07005KT P6SM VCSH SCT030 SCT060
      AMD NOT SKED TIL 210300=



000
FTUS42 TJSJ 202300
TAFJMZ
TAF
TJMZ 202339Z 2100/2124 07005KT P6SM FEW025 FEW040
     FM211530 08009KT P6SM SCT020 SCT030
     FM211800 27010KT P6SM VCSH SCT020 BKN040
     FM212200 08006KT P6SM VCSH SCT020 BKN030
      AMD NOT SKED TIL 211600=



000
FTUS42 TJSJ 202300
TAFISX
TAF
TISX 202339Z 2100/2124 07009KT P6SM FEW025
     FM211300 09015G22KT P6SM VCSH SCT025 SCT035 SCT045
     FM212300 08011KT P6SM VCTS SCT025CB SCT035 SCT045
      AMD NOT SKED=



000
FTUS42 TJSJ 202300
TAFJSJ
TAF
TJSJ 202339Z 2100/2124 09007KT P6SM FEW035 FEW060
     FM211300 08015G22KT P6SM VCSH SCT024 SCT030 SCT050
     FM212200 09007KT P6SM VCSH SCT030 SCT050=



    US Dept of Commerce
    National Oceanic and Atmospheric Administration
    National Weather Service
    1325 East West Highway
    Silver Spring, MD 20910
    Page Author: NWS Internet Services Team
Disclaimer
Information Quality
Credits
Glossary
Privacy Policy
Freedom of Information Act (FOIA)
About Us
Career Opportunities